sensor_id;sensor_type;location;lat;lon;timestamp;P1;durP1;ratioP1;P2;durP2;ratioP2
38621;SDS011;24380;51.132;5.360;2023-03-05T11:21:26;16.60;;;8.55;;
38621;SDS011;24380;51.132;5.360;2023-03-05T11:24:27;7.45;;;5.78;;
38621;SDS011;24380;51.132;5.360;2023-03-05T11:26:30;9.78;;;6.50;;
38621;SDS011;24380;51.132;5.360;2023-03-05T11:29:00;9.03;;;5.40;;
38621;SDS011;24380;51.132;5.360;2023-03-05T11:31:30;8.75;;;6.03;;
38621;SDS011;24380;51.132;5.360;2023-03-05T11:34:03;8.78;;;6.20;;
38621;SDS011;24380;51.132;5.360;2023-03-05T11:36:36;8.53;;;6.65;;
38621;SDS011;24380;51.132;5.360;2023-03-05T11:39:25;9.98;;;6.70;;
38621;SDS011;24380;51.132;5.360;2023-03-05T11:41:56;11.28;;;7.12;;
38621;SDS011;24380;51.132;5.360;2023-03-05T11:44:33;9.80;;;6.15;;
38621;SDS011;24380;51.132;5.360;2023-03-05T11:50:17;10.53;;;6.62;;
38621;SDS011;24380;51.132;5.360;2023-03-05T11:55:41;17.50;;;9.08;;
38621;SDS011;24380;51.132;5.360;2023-03-05T11:58:30;7.97;;;5.70;;
38621;SDS011;24380;51.132;5.360;2023-03-05T12:00:59;7.92;;;5.92;;
38621;SDS011;24380;51.132;5.360;2023-03-05T12:03:34;8.38;;;5.50;;
38621;SDS011;24380;51.132;5.360;2023-03-05T12:06:02;7.17;;;5.45;;
38621;SDS011;24380;51.132;5.360;2023-03-05T12:08:48;8.43;;;4.70;;
38621;SDS011;24380;51.132;5.360;2023-03-05T12:11:19;11.55;;;5.00;;
38621;SDS011;24380;51.132;5.360;2023-03-05T12:13:51;8.13;;;6.42;;
38621;SDS011;24380;51.132;5.360;2023-03-05T12:21:42;8.90;;;4.50;;
38621;SDS011;24380;51.132;5.360;2023-03-05T12:40:26;3.95;;;1.85;;
38621;SDS011;24380;51.132;5.360;2023-03-05T12:42:59;3.17;;;1.90;;
38621;SDS011;24380;51.132;5.360;2023-03-05T12:45:32;2.52;;;1.40;;
38621;SDS011;24380;51.132;5.360;2023-03-05T12:53:13;2.27;;;0.98;;
38621;SDS011;24380;51.132;5.360;2023-03-05T12:58:22;2.87;;;0.80;;
38621;SDS011;24380;51.132;5.360;2023-03-05T13:00:57;2.33;;;1.20;;
38621;SDS011;24380;51.132;5.360;2023-03-05T13:03:29;2.95;;;1.00;;
38621;SDS011;24380;51.132;5.360;2023-03-05T13:06:02;2.45;;;0.90;;
38621;SDS011;24380;51.132;5.360;2023-03-05T13:08:33;2.15;;;1.45;;
38621;SDS011;24380;51.132;5.360;2023-03-05T13:11:03;2.45;;;1.27;;
38621;SDS011;24380;51.132;5.360;2023-03-05T13:13:36;5.28;;;3.15;;
38621;SDS011;24380;51.132;5.360;2023-03-05T13:16:14;4.37;;;1.85;;
38621;SDS011;24380;51.132;5.360;2023-03-05T13:18:46;1.82;;;1.00;;
38621;SDS011;24380;51.132;5.360;2023-03-05T13:21:16;66.65;;;23.10;;
38621;SDS011;24380;51.132;5.360;2023-03-05T13:23:51;20.62;;;6.90;;
38621;SDS011;24380;51.132;5.360;2023-03-05T13:26:18;33.08;;;12.28;;
38621;SDS011;24380;51.132;5.360;2023-03-05T13:31:35;87.90;;;32.05;;
38621;SDS011;24380;51.132;5.360;2023-03-05T13:37:13;42.83;;;19.02;;
38621;SDS011;24380;51.132;5.360;2023-03-05T13:39:49;43.70;;;18.48;;
38621;SDS011;24380;51.132;5.360;2023-03-05T13:42:30;173.38;;;72.82;;
38621;SDS011;24380;51.132;5.360;2023-03-05T13:45:00;14.10;;;5.75;;
38621;SDS011;24380;51.132;5.360;2023-03-05T13:47:34;9.23;;;4.08;;
38621;SDS011;24380;51.132;5.360;2023-03-05T13:50:03;17.23;;;8.60;;
38621;SDS011;24380;51.132;5.360;2023-03-05T13:55:01;19.60;;;10.98;;
38621;SDS011;24380;51.132;5.360;2023-03-05T13:57:32;7.60;;;4.37;;
38621;SDS011;24380;51.132;5.360;2023-03-05T14:02:54;44.93;;;25.72;;
38621;SDS011;24380;51.132;5.360;2023-03-05T14:05:24;25.97;;;19.02;;
38621;SDS011;24380;51.132;5.360;2023-03-05T14:07:53;20.10;;;16.45;;
38621;SDS011;24380;51.132;5.360;2023-03-05T14:10:28;9.25;;;6.55;;
38621;SDS011;24380;51.132;5.360;2023-03-05T14:13:05;8.85;;;3.62;;
38621;SDS011;24380;51.132;5.360;2023-03-05T14:15:38;3.20;;;2.15;;
38621;SDS011;24380;51.132;5.360;2023-03-05T14:18:07;3.02;;;1.98;;
38621;SDS011;24380;51.132;5.360;2023-03-05T14:20:39;3.55;;;1.77;;
38621;SDS011;24380;51.132;5.360;2023-03-05T14:23:25;4.92;;;2.22;;
38621;SDS011;24380;51.132;5.360;2023-03-05T14:26:17;3.30;;;1.87;;
38621;SDS011;24380;51.132;5.360;2023-03-05T14:29:02;2.05;;;1.80;;
38621;SDS011;24380;51.132;5.360;2023-03-05T14:31:44;4.00;;;1.50;;
38621;SDS011;24380;51.132;5.360;2023-03-05T14:34:39;5.20;;;2.50;;
38621;SDS011;24380;51.132;5.360;2023-03-05T14:37:18;3.27;;;1.90;;
38621;SDS011;24380;51.132;5.360;2023-03-05T14:40:03;4.30;;;2.60;;
38621;SDS011;24380;51.132;5.360;2023-03-05T14:42:36;1.37;;;1.00;;
38621;SDS011;24380;51.132;5.360;2023-03-05T14:45:11;3.20;;;1.12;;
38621;SDS011;24380;51.132;5.360;2023-03-05T14:47:49;2.75;;;0.80;;
38621;SDS011;24380;51.132;5.360;2023-03-05T14:50:19;1.12;;;1.00;;
38621;SDS011;24380;51.132;5.360;2023-03-05T14:55:23;1.67;;;0.90;;
38621;SDS011;24380;51.132;5.360;2023-03-05T14:57:47;1.25;;;0.57;;
38621;SDS011;24380;51.132;5.360;2023-03-05T15:00:16;1.80;;;0.80;;
38621;SDS011;24380;51.132;5.360;2023-03-05T15:02:48;2.02;;;0.90;;
38621;SDS011;24380;51.132;5.360;2023-03-05T15:08:03;2.42;;;0.93;;
38621;SDS011;24380;51.132;5.360;2023-03-05T15:10:33;2.20;;;1.15;;
38621;SDS011;24380;51.132;5.360;2023-03-05T15:13:00;3.62;;;0.90;;
38621;SDS011;24380;51.132;5.360;2023-03-05T15:15:28;2.40;;;0.95;;
38621;SDS011;24380;51.132;5.360;2023-03-05T15:17:55;4.58;;;1.25;;
38621;SDS011;24380;51.132;5.360;2023-03-05T15:20:24;2.00;;;0.70;;
38621;SDS011;24380;51.132;5.360;2023-03-05T15:22:53;1.95;;;1.00;;
38621;SDS011;24380;51.132;5.360;2023-03-05T15:25:22;2.55;;;0.82;;
38621;SDS011;24380;51.132;5.360;2023-03-05T15:27:51;1.52;;;0.90;;
38621;SDS011;24380;51.132;5.360;2023-03-05T15:30:27;2.90;;;1.12;;
38621;SDS011;24380;51.132;5.360;2023-03-05T15:33:07;2.30;;;1.02;;
38621;SDS011;24380;51.132;5.360;2023-03-05T15:35:36;2.08;;;1.20;;
38621;SDS011;24380;51.132;5.360;2023-03-05T15:38:04;2.72;;;1.40;;
38621;SDS011;24380;51.132;5.360;2023-03-05T15:40:31;3.10;;;1.40;;
38621;SDS011;24380;51.132;5.360;2023-03-05T15:42:59;2.87;;;1.30;;
38621;SDS011;24380;51.132;5.360;2023-03-05T15:45:27;1.40;;;1.30;;
38621;SDS011;24380;51.132;5.360;2023-03-05T15:47:56;3.42;;;1.40;;
38621;SDS011;24380;51.132;5.360;2023-03-05T15:50:24;2.00;;;1.40;;
38621;SDS011;24380;51.132;5.360;2023-03-05T15:52:51;2.95;;;1.65;;
38621;SDS011;24380;51.132;5.360;2023-03-05T15:55:19;3.77;;;2.27;;
38621;SDS011;24380;51.132;5.360;2023-03-05T15:57:47;5.37;;;2.30;;
38621;SDS011;24380;51.132;5.360;2023-03-05T16:00:18;4.70;;;3.42;;
38621;SDS011;24380;51.132;5.360;2023-03-05T16:05:14;3.98;;;2.20;;
38621;SDS011;24380;51.132;5.360;2023-03-05T16:07:43;6.67;;;3.72;;
38621;SDS011;24380;51.132;5.360;2023-03-05T16:10:14;6.60;;;3.30;;
38621;SDS011;24380;51.132;5.360;2023-03-05T16:12:45;4.85;;;2.50;;
38621;SDS011;24380;51.132;5.360;2023-03-05T16:15:17;4.58;;;2.83;;
38621;SDS011;24380;51.132;5.360;2023-03-05T16:17:50;5.22;;;3.27;;
38621;SDS011;24380;51.132;5.360;2023-03-05T16:20:19;3.40;;;2.65;;
38621;SDS011;24380;51.132;5.360;2023-03-05T16:22:47;3.98;;;2.58;;
38621;SDS011;24380;51.132;5.360;2023-03-05T16:25:15;4.60;;;2.62;;
38621;SDS011;24380;51.132;5.360;2023-03-05T16:27:43;3.90;;;2.87;;
38621;SDS011;24380;51.132;5.360;2023-03-05T16:30:13;4.65;;;2.83;;
38621;SDS011;24380;51.132;5.360;2023-03-05T16:32:41;3.35;;;3.00;;
38621;SDS011;24380;51.132;5.360;2023-03-05T16:35:09;4.92;;;3.08;;
38621;SDS011;24380;51.132;5.360;2023-03-05T16:37:37;3.87;;;3.00;;
38621;SDS011;24380;51.132;5.360;2023-03-05T16:40:05;6.80;;;3.42;;
38621;SDS011;24380;51.132;5.360;2023-03-05T16:42:35;4.62;;;3.42;;
38621;SDS011;24380;51.132;5.360;2023-03-05T16:45:03;5.42;;;3.85;;
38621;SDS011;24380;51.132;5.360;2023-03-05T16:47:31;8.13;;;3.92;;
38621;SDS011;24380;51.132;5.360;2023-03-05T16:49:59;6.72;;;4.20;;
38621;SDS011;24380;51.132;5.360;2023-03-05T16:52:27;6.60;;;4.50;;
38621;SDS011;24380;51.132;5.360;2023-03-05T16:54:55;6.95;;;5.10;;
38621;SDS011;24380;51.132;5.360;2023-03-05T16:57:23;7.05;;;4.40;;
38621;SDS011;24380;51.132;5.360;2023-03-05T16:59:51;9.30;;;6.45;;
38621;SDS011;24380;51.132;5.360;2023-03-05T17:02:18;9.88;;;5.22;;
38621;SDS011;24380;51.132;5.360;2023-03-05T17:04:46;9.40;;;6.08;;
38621;SDS011;24380;51.132;5.360;2023-03-05T17:07:15;10.13;;;5.87;;
38621;SDS011;24380;51.132;5.360;2023-03-05T17:09:43;9.90;;;6.62;;
38621;SDS011;24380;51.132;5.360;2023-03-05T17:12:12;8.25;;;6.00;;
38621;SDS011;24380;51.132;5.360;2023-03-05T17:14:40;13.13;;;7.03;;
38621;SDS011;24380;51.132;5.360;2023-03-05T17:17:07;12.90;;;7.55;;
38621;SDS011;24380;51.132;5.360;2023-03-05T17:19:35;15.85;;;9.60;;
38621;SDS011;24380;51.132;5.360;2023-03-05T17:22:02;20.35;;;9.88;;
38621;SDS011;24380;51.132;5.360;2023-03-05T17:24:30;25.30;;;12.40;;
38621;SDS011;24380;51.132;5.360;2023-03-05T17:26:58;14.35;;;7.75;;
38621;SDS011;24380;51.132;5.360;2023-03-05T17:29:26;9.58;;;6.40;;
38621;SDS011;24380;51.132;5.360;2023-03-05T17:31:54;10.15;;;6.65;;
38621;SDS011;24380;51.132;5.360;2023-03-05T17:34:21;9.30;;;6.42;;
38621;SDS011;24380;51.132;5.360;2023-03-05T17:36:49;10.20;;;6.58;;
38621;SDS011;24380;51.132;5.360;2023-03-05T17:39:16;7.83;;;6.03;;
38621;SDS011;24380;51.132;5.360;2023-03-05T17:41:44;10.85;;;5.97;;
38621;SDS011;24380;51.132;5.360;2023-03-05T17:44:12;10.95;;;5.45;;
38621;SDS011;24380;51.132;5.360;2023-03-05T17:46:40;9.35;;;5.92;;
38621;SDS011;24380;51.132;5.360;2023-03-05T17:49:07;7.25;;;4.75;;
38621;SDS011;24380;51.132;5.360;2023-03-05T17:51:35;8.25;;;4.20;;
38621;SDS011;24380;51.132;5.360;2023-03-05T17:54:03;7.10;;;3.52;;
38621;SDS011;24380;51.132;5.360;2023-03-05T17:56:30;5.60;;;3.83;;
38621;SDS011;24380;51.132;5.360;2023-03-05T17:58:58;5.40;;;3.15;;
38621;SDS011;24380;51.132;5.360;2023-03-05T18:01:30;3.58;;;2.52;;
38621;SDS011;24380;51.132;5.360;2023-03-05T18:03:59;4.95;;;2.45;;
38621;SDS011;24380;51.132;5.360;2023-03-05T18:06:27;5.05;;;2.80;;
38621;SDS011;24380;51.132;5.360;2023-03-05T18:08:55;3.95;;;2.02;;
38621;SDS011;24380;51.132;5.360;2023-03-05T18:11:23;4.33;;;1.92;;
38621;SDS011;24380;51.132;5.360;2023-03-05T18:13:50;3.95;;;2.00;;
38621;SDS011;24380;51.132;5.360;2023-03-05T18:16:18;5.95;;;1.90;;
38621;SDS011;24380;51.132;5.360;2023-03-05T18:18:47;5.12;;;1.75;;
38621;SDS011;24380;51.132;5.360;2023-03-05T18:21:23;2.55;;;1.82;;
38621;SDS011;24380;51.132;5.360;2023-03-05T18:23:47;3.65;;;1.75;;
38621;SDS011;24380;51.132;5.360;2023-03-05T18:26:16;4.87;;;1.80;;
38621;SDS011;24380;51.132;5.360;2023-03-05T18:28:44;2.90;;;2.00;;
38621;SDS011;24380;51.132;5.360;2023-03-05T18:31:11;2.33;;;1.82;;
38621;SDS011;24380;51.132;5.360;2023-03-05T18:33:39;7.22;;;2.30;;
38621;SDS011;24380;51.132;5.360;2023-03-05T18:36:06;4.47;;;2.15;;
38621;SDS011;24380;51.132;5.360;2023-03-05T18:38:35;4.80;;;2.33;;
38621;SDS011;24380;51.132;5.360;2023-03-05T18:41:03;2.37;;;1.98;;
38621;SDS011;24380;51.132;5.360;2023-03-05T18:43:31;4.45;;;2.20;;
38621;SDS011;24380;51.132;5.360;2023-03-05T18:45:58;4.40;;;2.40;;
38621;SDS011;24380;51.132;5.360;2023-03-05T18:48:28;3.72;;;2.47;;
38621;SDS011;24380;51.132;5.360;2023-03-05T18:50:55;3.92;;;2.42;;
38621;SDS011;24380;51.132;5.360;2023-03-05T18:53:23;4.92;;;2.75;;
38621;SDS011;24380;51.132;5.360;2023-03-05T18:55:51;4.35;;;3.00;;
38621;SDS011;24380;51.132;5.360;2023-03-05T18:58:19;3.40;;;2.70;;
38621;SDS011;24380;51.132;5.360;2023-03-05T19:00:47;3.65;;;2.72;;
38621;SDS011;24380;51.132;5.360;2023-03-05T19:03:15;4.72;;;2.60;;
38621;SDS011;24380;51.132;5.360;2023-03-05T19:05:43;3.80;;;2.58;;
38621;SDS011;24380;51.132;5.360;2023-03-05T19:08:10;3.52;;;2.95;;
38621;SDS011;24380;51.132;5.360;2023-03-05T19:10:38;4.87;;;2.77;;
38621;SDS011;24380;51.132;5.360;2023-03-05T19:16:06;4.22;;;3.10;;
38621;SDS011;24380;51.132;5.360;2023-03-05T19:21:41;4.78;;;3.62;;
38621;SDS011;24380;51.132;5.360;2023-03-05T19:24:10;5.92;;;3.83;;
38621;SDS011;24380;51.132;5.360;2023-03-05T19:26:39;7.20;;;3.95;;
38621;SDS011;24380;51.132;5.360;2023-03-05T19:29:07;6.92;;;4.87;;
38621;SDS011;24380;51.132;5.360;2023-03-05T19:31:35;7.60;;;4.22;;
38621;SDS011;24380;51.132;5.360;2023-03-05T19:34:03;6.42;;;4.35;;
38621;SDS011;24380;51.132;5.360;2023-03-05T19:36:31;10.63;;;6.42;;
38621;SDS011;24380;51.132;5.360;2023-03-05T19:39:06;6.78;;;4.78;;
38621;SDS011;24380;51.132;5.360;2023-03-05T19:41:30;7.10;;;5.12;;
38621;SDS011;24380;51.132;5.360;2023-03-05T19:43:59;9.10;;;5.30;;
38621;SDS011;24380;51.132;5.360;2023-03-05T19:46:27;8.13;;;5.20;;
38621;SDS011;24380;51.132;5.360;2023-03-05T19:48:55;8.23;;;5.72;;
38621;SDS011;24380;51.132;5.360;2023-03-05T19:51:23;8.58;;;5.72;;
38621;SDS011;24380;51.132;5.360;2023-03-05T19:53:51;11.80;;;6.33;;
38621;SDS011;24380;51.132;5.360;2023-03-05T19:56:19;9.73;;;6.33;;
38621;SDS011;24380;51.132;5.360;2023-03-05T19:58:47;18.20;;;9.20;;
38621;SDS011;24380;51.132;5.360;2023-03-05T20:01:18;10.30;;;6.17;;
38621;SDS011;24380;51.132;5.360;2023-03-05T20:03:49;11.05;;;6.62;;
38621;SDS011;24380;51.132;5.360;2023-03-05T20:06:18;12.35;;;8.25;;
38621;SDS011;24380;51.132;5.360;2023-03-05T20:08:47;14.33;;;7.87;;
38621;SDS011;24380;51.132;5.360;2023-03-05T20:11:15;13.00;;;8.35;;
38621;SDS011;24380;51.132;5.360;2023-03-05T20:13:44;14.98;;;7.85;;
38621;SDS011;24380;51.132;5.360;2023-03-05T20:16:13;12.88;;;8.33;;
38621;SDS011;24380;51.132;5.360;2023-03-05T20:18:42;10.70;;;7.58;;
38621;SDS011;24380;51.132;5.360;2023-03-05T20:21:11;14.47;;;8.13;;
38621;SDS011;24380;51.132;5.360;2023-03-05T20:23:44;27.48;;;16.32;;
38621;SDS011;24380;51.132;5.360;2023-03-05T20:26:11;35.28;;;26.07;;
38621;SDS011;24380;51.132;5.360;2023-03-05T20:28:39;13.98;;;8.95;;
38621;SDS011;24380;51.132;5.360;2023-03-05T20:31:07;12.37;;;8.58;;
38621;SDS011;24380;51.132;5.360;2023-03-05T20:33:34;14.18;;;8.48;;
38621;SDS011;24380;51.132;5.360;2023-03-05T20:36:02;14.63;;;8.48;;
38621;SDS011;24380;51.132;5.360;2023-03-05T20:38:30;12.73;;;8.48;;
38621;SDS011;24380;51.132;5.360;2023-03-05T20:43:29;18.73;;;10.35;;
38621;SDS011;24380;51.132;5.360;2023-03-05T20:45:59;16.17;;;10.50;;
38621;SDS011;24380;51.132;5.360;2023-03-05T20:48:31;15.35;;;11.08;;
38621;SDS011;24380;51.132;5.360;2023-03-05T20:51:09;18.42;;;12.30;;
38621;SDS011;24380;51.132;5.360;2023-03-05T20:53:38;22.67;;;14.45;;
38621;SDS011;24380;51.132;5.360;2023-03-05T20:56:06;21.97;;;13.60;;
38621;SDS011;24380;51.132;5.360;2023-03-05T20:58:33;22.70;;;13.65;;
38621;SDS011;24380;51.132;5.360;2023-03-05T21:01:02;23.95;;;12.75;;
38621;SDS011;24380;51.132;5.360;2023-03-05T21:03:30;18.32;;;12.43;;
38621;SDS011;24380;51.132;5.360;2023-03-05T21:05:57;19.12;;;12.33;;
38621;SDS011;24380;51.132;5.360;2023-03-05T21:08:27;18.73;;;11.28;;
38621;SDS011;24380;51.132;5.360;2023-03-05T21:10:55;16.20;;;11.35;;
38621;SDS011;24380;51.132;5.360;2023-03-05T21:13:24;17.17;;;11.33;;
38621;SDS011;24380;51.132;5.360;2023-03-05T21:15:53;17.23;;;10.93;;
38621;SDS011;24380;51.132;5.360;2023-03-05T21:18:20;16.45;;;10.95;;
38621;SDS011;24380;51.132;5.360;2023-03-05T21:20:48;19.10;;;11.95;;
38621;SDS011;24380;51.132;5.360;2023-03-05T21:23:16;18.50;;;11.15;;
38621;SDS011;24380;51.132;5.360;2023-03-05T21:25:43;18.90;;;11.45;;
38621;SDS011;24380;51.132;5.360;2023-03-05T21:28:12;19.60;;;11.78;;
38621;SDS011;24380;51.132;5.360;2023-03-05T21:33:15;20.02;;;11.35;;
38621;SDS011;24380;51.132;5.360;2023-03-05T21:35:43;17.70;;;11.55;;
38621;SDS011;24380;51.132;5.360;2023-03-05T21:38:11;18.87;;;11.97;;
38621;SDS011;24380;51.132;5.360;2023-03-05T21:40:41;20.35;;;11.45;;
38621;SDS011;24380;51.132;5.360;2023-03-05T21:45:38;17.75;;;11.10;;
38621;SDS011;24380;51.132;5.360;2023-03-05T21:48:06;19.35;;;11.15;;
38621;SDS011;24380;51.132;5.360;2023-03-05T21:50:37;19.37;;;11.80;;
38621;SDS011;24380;51.132;5.360;2023-03-05T21:53:05;19.25;;;11.25;;
38621;SDS011;24380;51.132;5.360;2023-03-05T21:58:40;21.10;;;12.90;;
38621;SDS011;24380;51.132;5.360;2023-03-05T22:01:11;17.50;;;11.12;;
38621;SDS011;24380;51.132;5.360;2023-03-05T22:03:40;20.02;;;11.28;;
38621;SDS011;24380;51.132;5.360;2023-03-05T22:06:09;19.73;;;11.55;;
38621;SDS011;24380;51.132;5.360;2023-03-05T22:08:37;18.65;;;11.50;;
38621;SDS011;24380;51.132;5.360;2023-03-05T22:11:08;16.77;;;11.33;;
38621;SDS011;24380;51.132;5.360;2023-03-05T22:13:38;15.48;;;11.08;;
38621;SDS011;24380;51.132;5.360;2023-03-05T22:16:05;19.05;;;11.48;;
38621;SDS011;24380;51.132;5.360;2023-03-05T22:18:34;19.17;;;10.95;;
38621;SDS011;24380;51.132;5.360;2023-03-05T22:21:02;18.12;;;11.73;;
38621;SDS011;24380;51.132;5.360;2023-03-05T22:23:30;16.25;;;10.88;;
38621;SDS011;24380;51.132;5.360;2023-03-05T22:26:03;19.35;;;12.05;;
38621;SDS011;24380;51.132;5.360;2023-03-05T22:28:31;19.50;;;11.85;;
38621;SDS011;24380;51.132;5.360;2023-03-05T22:31:01;19.90;;;11.88;;
38621;SDS011;24380;51.132;5.360;2023-03-05T22:33:29;19.57;;;11.90;;
38621;SDS011;24380;51.132;5.360;2023-03-05T22:35:57;18.95;;;11.80;;
38621;SDS011;24380;51.132;5.360;2023-03-05T22:38:24;19.32;;;12.20;;
38621;SDS011;24380;51.132;5.360;2023-03-05T22:40:52;20.12;;;12.37;;
38621;SDS011;24380;51.132;5.360;2023-03-05T22:43:19;20.17;;;12.40;;
38621;SDS011;24380;51.132;5.360;2023-03-05T22:45:47;22.22;;;13.22;;
38621;SDS011;24380;51.132;5.360;2023-03-05T22:48:15;18.95;;;12.00;;
38621;SDS011;24380;51.132;5.360;2023-03-05T22:50:42;21.90;;;11.30;;
38621;SDS011;24380;51.132;5.360;2023-03-05T22:53:10;21.65;;;12.53;;
38621;SDS011;24380;51.132;5.360;2023-03-05T22:55:39;21.27;;;13.38;;
38621;SDS011;24380;51.132;5.360;2023-03-05T22:58:07;20.60;;;12.78;;
38621;SDS011;24380;51.132;5.360;2023-03-05T23:00:35;20.32;;;13.22;;
38621;SDS011;24380;51.132;5.360;2023-03-05T23:03:04;30.08;;;17.35;;
38621;SDS011;24380;51.132;5.360;2023-03-05T23:05:32;34.98;;;17.10;;
38621;SDS011;24380;51.132;5.360;2023-03-05T23:08:00;42.10;;;25.80;;
38621;SDS011;24380;51.132;5.360;2023-03-05T23:10:28;25.00;;;13.78;;
38621;SDS011;24380;51.132;5.360;2023-03-05T23:12:56;89.13;;;48.50;;
38621;SDS011;24380;51.132;5.360;2023-03-05T23:15:26;31.35;;;18.70;;
38621;SDS011;24380;51.132;5.360;2023-03-05T23:17:56;30.45;;;18.60;;
38621;SDS011;24380;51.132;5.360;2023-03-05T23:20:25;29.63;;;17.35;;
38621;SDS011;24380;51.132;5.360;2023-03-05T23:22:54;32.20;;;19.80;;
38621;SDS011;24380;51.132;5.360;2023-03-05T23:25:23;43.95;;;23.00;;
38621;SDS011;24380;51.132;5.360;2023-03-05T23:27:54;32.88;;;19.17;;
38621;SDS011;24380;51.132;5.360;2023-03-05T23:30:26;42.30;;;22.95;;
38621;SDS011;24380;51.132;5.360;2023-03-05T23:33:01;41.92;;;22.95;;
38621;SDS011;24380;51.132;5.360;2023-03-05T23:38:23;41.53;;;22.93;;
38621;SDS011;24380;51.132;5.360;2023-03-05T23:40:52;36.83;;;20.80;;
38621;SDS011;24380;51.132;5.360;2023-03-05T23:43:22;36.58;;;21.62;;
38621;SDS011;24380;51.132;5.360;2023-03-05T23:45:51;59.08;;;33.85;;
38621;SDS011;24380;51.132;5.360;2023-03-05T23:48:22;30.15;;;18.48;;
38621;SDS011;24380;51.132;5.360;2023-03-05T23:50:50;33.48;;;20.57;;
38621;SDS011;24380;51.132;5.360;2023-03-05T23:53:22;42.95;;;26.93;;
38621;SDS011;24380;51.132;5.360;2023-03-05T23:55:52;36.35;;;22.62;;
38621;SDS011;24380;51.132;5.360;2023-03-05T23:58:21;31.30;;;19.10;;
